Time;durP1;ratioP1;P1;durP2;ratioP2;P2;SDS_P1;SDS_P2;PMS_P1;PMS_P2;Temp;Humidity;BMP_temperature;BMP_pressure;BME280_temperature;BME280_humidity;BME280_pressure;Samples;Min_cycle;Max_cycle;Signal;HPM_P1;HPM_P2
2023/08/12 00:01:24;;;;;;;18.33;7.55;;;;;;;;;;4948891;29;20046;-63
2023/08/12 00:03:50;;;;;;;14.93;7.65;;;;;;;;;;4945031;28;20015;-62
2023/08/12 00:06:16;;;;;;;16.58;7.47;;;;;;;;;;4947783;28;20561;-64
2023/08/12 00:08:41;;;;;;;16.10;7.72;;;;;;;;;;4946398;28;20020;-64
2023/08/12 00:11:06;;;;;;;15.43;7.72;;;;;;;;;;4946738;29;20054;-64
2023/08/12 00:13:32;;;;;;;16.35;7.50;;;;;;;;;;4939803;28;20378;-65
2023/08/12 00:15:57;;;;;;;17.83;7.35;;;;;;;;;;4936653;29;20058;-60
2023/08/12 00:18:23;;;;;;;17.52;6.93;;;;;;;;;;4936714;29;20492;-64
2023/08/12 00:20:48;;;;;;;16.83;6.90;;;;;;;;;;4936661;29;20479;-64
2023/08/12 00:23:14;;;;;;;13.45;6.68;;;;;;;;;;4936732;29;20115;-60
2023/08/12 00:25:39;;;;;;;12.68;6.05;;;;;;;;;;4936417;29;20039;-65
2023/08/12 00:28:05;;;;;;;10.80;6.20;;;;;;;;;;4936621;29;20039;-63
2023/08/12 00:30:30;;;;;;;13.15;6.20;;;;;;;;;;4943066;29;20335;-67
2023/08/12 00:32:56;;;;;;;16.83;6.65;;;;;;;;;;4955322;28;20027;-65
2023/08/12 00:35:21;;;;;;;14.10;6.40;;;;;;;;;;4955606;28;20504;-65
2023/08/12 00:37:46;;;;;;;12.23;7.07;;;;;;;;;;4955456;28;20042;-65
2023/08/12 00:40:13;;;;;;;12.30;6.57;;;;;;;;;;4955476;28;20035;-65
2023/08/12 00:42:38;;;;;;;12.75;6.82;;;;;;;;;;4964274;28;20027;-65
2023/08/12 00:45:10;;;;;;;11.95;6.38;;;;;;;;;;4974696;28;20045;-65
2023/08/12 00:47:35;;;;;;;13.38;6.07;;;;;;;;;;4965609;28;20482;-68
2023/08/12 00:50:01;;;;;;;11.63;6.60;;;;;;;;;;4955209;28;20047;-66
2023/08/12 00:52:27;;;;;;;15.00;6.57;;;;;;;;;;4955444;28;20160;-65
2023/08/12 00:54:52;;;;;;;15.10;7.00;;;;;;;;;;4955149;28;20531;-65
2023/08/12 00:57:18;;;;;;;18.27;7.18;;;;;;;;;;4955389;28;20433;-65
2023/08/12 00:59:44;;;;;;;16.45;7.60;;;;;;;;;;4954612;28;20038;-64
2023/08/12 01:02:10;;;;;;;17.23;7.63;;;;;;;;;;4954757;28;20052;-63
2023/08/12 01:04:36;;;;;;;15.02;7.07;;;;;;;;;;4954937;28;20047;-64
2023/08/12 01:07:01;;;;;;;16.80;8.13;;;;;;;;;;4955084;28;20433;-65
2023/08/12 01:09:27;;;;;;;13.65;7.78;;;;;;;;;;4954820;28;20114;-65
2023/08/12 01:12:35;;;;;;;12.80;7.25;;;;;;;;;;4954994;29;20027;-64
2023/08/12 01:15:08;;;;;;;12.88;7.22;;;;;;;;;;4932907;29;20132;-64
2023/08/12 01:17:36;;;;;;;17.38;7.55;;;;;;;;;;4932877;29;20039;-64
2023/08/12 01:20:24;;;;;;;19.08;7.07;;;;;;;;;;4933091;29;20024;-62
2023/08/12 01:22:52;;;;;;;14.35;6.75;;;;;;;;;;4932631;29;20036;-65
2023/08/12 01:25:18;;;;;;;18.93;7.87;;;;;;;;;;4933042;29;20516;-62
2023/08/12 01:27:43;;;;;;;18.60;7.45;;;;;;;;;;4932844;29;20032;-62
2023/08/12 01:30:10;;;;;;;16.77;7.50;;;;;;;;;;4932613;29;20032;-65
2023/08/12 01:32:53;;;;;;;15.48;7.93;;;;;;;;;;4932803;29;20028;-64
2023/08/12 01:35:43;;;;;;;14.20;7.10;;;;;;;;;;4932868;29;20046;-66
2023/08/12 01:38:09;;;;;;;16.92;6.97;;;;;;;;;;4932726;29;20028;-60
2023/08/12 01:40:36;;;;;;;12.63;7.47;;;;;;;;;;4932867;29;20032;-64
2023/08/12 01:43:03;;;;;;;15.50;6.82;;;;;;;;;;4944000;29;20122;-65
2023/08/12 01:45:31;;;;;;;15.70;6.95;;;;;;;;;;4951592;29;20516;-60
2023/08/12 01:47:57;;;;;;;14.68;6.70;;;;;;;;;;4953177;28;20579;-64
2023/08/12 01:50:23;;;;;;;13.50;6.32;;;;;;;;;;4973617;28;20114;-65
2023/08/12 01:52:48;;;;;;;11.88;5.60;;;;;;;;;;4957532;28;20106;-63
2023/08/12 01:55:13;;;;;;;15.73;6.25;;;;;;;;;;4954175;28;20114;-67
2023/08/12 01:57:39;;;;;;;12.77;5.32;;;;;;;;;;4953939;28;20110;-60
2023/08/12 02:00:06;;;;;;;13.85;5.70;;;;;;;;;;4954030;28;20027;-60
2023/08/12 02:02:31;;;;;;;10.70;5.28;;;;;;;;;;4935124;28;20028;-65
2023/08/12 02:04:56;;;;;;;11.18;5.07;;;;;;;;;;4934808;29;20496;-61
2023/08/12 02:07:22;;;;;;;11.05;5.07;;;;;;;;;;4934880;29;20467;-65
2023/08/12 02:09:47;;;;;;;9.95;4.70;;;;;;;;;;4934685;29;20031;-60
2023/08/12 02:12:13;;;;;;;11.07;4.55;;;;;;;;;;4933720;29;20466;-64
2023/08/12 02:14:38;;;;;;;11.52;4.82;;;;;;;;;;4934658;28;20032;-64
2023/08/12 02:17:07;;;;;;;10.50;5.35;;;;;;;;;;4934531;29;20164;-63
2023/08/12 02:19:33;;;;;;;16.42;5.65;;;;;;;;;;4934703;29;20031;-64
2023/08/12 02:21:59;;;;;;;7.75;4.97;;;;;;;;;;4934753;28;20553;-62
2023/08/12 02:24:25;;;;;;;12.30;5.03;;;;;;;;;;4934691;29;20027;-61
2023/08/12 02:26:50;;;;;;;12.02;4.88;;;;;;;;;;4934484;29;20477;-65
2023/08/12 02:29:15;;;;;;;12.02;5.22;;;;;;;;;;4934580;29;20023;-66
2023/08/12 02:31:41;;;;;;;8.23;5.20;;;;;;;;;;4950196;29;20090;-60
2023/08/12 02:34:07;;;;;;;10.18;4.70;;;;;;;;;;4953425;28;20027;-60
2023/08/12 02:36:32;;;;;;;10.55;4.43;;;;;;;;;;4953496;28;20381;-65
2023/08/12 02:38:58;;;;;;;12.10;5.10;;;;;;;;;;4953236;28;20066;-64
2023/08/12 02:41:23;;;;;;;13.38;4.78;;;;;;;;;;4953094;28;20027;-66
2023/08/12 02:43:48;;;;;;;10.00;4.80;;;;;;;;;;4971089;28;20030;-67
2023/08/12 02:46:18;;;;;;;13.88;5.38;;;;;;;;;;4972835;28;20027;-65
2023/08/12 02:48:47;;;;;;;11.47;5.07;;;;;;;;;;4971081;28;20031;-65
2023/08/12 02:51:13;;;;;;;12.43;5.03;;;;;;;;;;4969224;28;20447;-65
2023/08/12 02:53:38;;;;;;;8.10;4.40;;;;;;;;;;4953038;28;20118;-62
2023/08/12 02:56:03;;;;;;;11.13;4.70;;;;;;;;;;4952950;28;20110;-65
2023/08/12 02:58:29;;;;;;;13.38;5.43;;;;;;;;;;4953097;28;20111;-61
2023/08/12 03:00:56;;;;;;;7.88;4.90;;;;;;;;;;4952883;28;20054;-65
2023/08/12 03:03:21;;;;;;;11.65;4.80;;;;;;;;;;4953075;28;20034;-66
2023/08/12 03:05:48;;;;;;;13.88;5.43;;;;;;;;;;4952703;28;20031;-64
2023/08/12 03:08:13;;;;;;;15.63;5.63;;;;;;;;;;4952699;28;20042;-64
2023/08/12 03:10:39;;;;;;;14.95;5.22;;;;;;;;;;4952682;29;20373;-64
2023/08/12 03:13:04;;;;;;;14.25;4.97;;;;;;;;;;4952854;29;20054;-63
2023/08/12 03:15:30;;;;;;;12.15;5.00;;;;;;;;;;4952867;29;20114;-64
2023/08/12 03:17:56;;;;;;;17.60;5.68;;;;;;;;;;4952465;29;20449;-64
2023/08/12 03:20:22;;;;;;;16.40;5.40;;;;;;;;;;4952381;28;20121;-65
2023/08/12 03:22:48;;;;;;;9.43;5.30;;;;;;;;;;4952536;28;20042;-67
2023/08/12 03:25:14;;;;;;;12.07;5.05;;;;;;;;;;4952541;29;20031;-64
2023/08/12 03:27:40;;;;;;;17.98;5.25;;;;;;;;;;4952401;29;20032;-64
2023/08/12 03:30:06;;;;;;;11.70;5.07;;;;;;;;;;4952368;29;20182;-64
2023/08/12 03:32:32;;;;;;;12.30;5.30;;;;;;;;;;4952595;28;20034;-61
2023/08/12 03:34:57;;;;;;;13.27;5.10;;;;;;;;;;4952309;28;20385;-62
2023/08/12 03:37:23;;;;;;;14.30;5.07;;;;;;;;;;4952262;28;20027;-63
2023/08/12 03:39:48;;;;;;;13.00;5.10;;;;;;;;;;4952176;28;20098;-65
2023/08/12 03:42:16;;;;;;;11.60;5.10;;;;;;;;;;4957550;28;20114;-63
2023/08/12 03:44:42;;;;;;;9.82;4.82;;;;;;;;;;4971602;28;20031;-61
2023/08/12 03:47:07;;;;;;;11.20;5.03;;;;;;;;;;4971678;28;20045;-66
2023/08/12 03:49:33;;;;;;;10.38;5.30;;;;;;;;;;4971745;28;20022;-67
2023/08/12 03:51:58;;;;;;;11.20;5.50;;;;;;;;;;4961037;28;20031;-64
2023/08/12 03:54:23;;;;;;;11.75;5.43;;;;;;;;;;4952073;28;20542;-66
2023/08/12 03:56:49;;;;;;;9.18;4.82;;;;;;;;;;4952448;28;20043;-67
2023/08/12 03:59:14;;;;;;;8.68;4.88;;;;;;;;;;4952428;28;20031;-67
2023/08/12 04:01:40;;;;;;;11.63;5.40;;;;;;;;;;4950917;28;20374;-66
2023/08/12 04:04:05;;;;;;;10.85;5.05;;;;;;;;;;4952313;28;20031;-67
2023/08/12 04:06:31;;;;;;;12.52;5.30;;;;;;;;;;4952395;28;20031;-65
2023/08/12 04:08:56;;;;;;;10.70;4.90;;;;;;;;;;4952014;28;20035;-65
2023/08/12 04:11:22;;;;;;;11.77;5.15;;;;;;;;;;4952302;28;20027;-65
2023/08/12 04:13:47;;;;;;;8.57;4.45;;;;;;;;;;4952087;28;20031;-67
2023/08/12 04:16:12;;;;;;;8.10;4.65;;;;;;;;;;4952094;28;20043;-67
2023/08/12 04:18:38;;;;;;;11.05;4.70;;;;;;;;;;4952333;29;20031;-67
2023/08/12 04:21:03;;;;;;;8.20;4.40;;;;;;;;;;4952258;29;20035;-67
2023/08/12 04:23:29;;;;;;;9.13;4.40;;;;;;;;;;4952014;29;20024;-67
2023/08/12 04:25:54;;;;;;;9.73;4.85;;;;;;;;;;4952182;29;20015;-65
2023/08/12 04:28:20;;;;;;;11.85;5.43;;;;;;;;;;4952009;28;20031;-67
2023/08/12 04:30:47;;;;;;;10.88;5.25;;;;;;;;;;4952114;29;20171;-67
2023/08/12 04:33:13;;;;;;;12.98;4.70;;;;;;;;;;4952063;28;20050;-67
2023/08/12 04:35:39;;;;;;;12.43;5.55;;;;;;;;;;4953175;28;20047;-66
2023/08/12 04:38:05;;;;;;;11.88;6.85;;;;;;;;;;4955378;28;20150;-66
2023/08/12 04:40:31;;;;;;;11.13;5.60;;;;;;;;;;4955751;28;20155;-67
2023/08/12 04:42:57;;;;;;;10.57;5.22;;;;;;;;;;4966407;28;20408;-67
2023/08/12 04:45:23;;;;;;;10.98;5.47;;;;;;;;;;4974945;28;20033;-66
2023/08/12 04:47:48;;;;;;;13.98;6.38;;;;;;;;;;4974698;28;20380;-67
2023/08/12 04:50:14;;;;;;;9.77;5.00;;;;;;;;;;4974853;28;20537;-63
2023/08/12 04:52:39;;;;;;;8.65;4.72;;;;;;;;;;4960179;28;20034;-66
2023/08/12 04:55:05;;;;;;;8.70;4.80;;;;;;;;;;4955610;28;20055;-66
2023/08/12 04:57:30;;;;;;;8.43;5.05;;;;;;;;;;4955709;28;20503;-67
2023/08/12 04:59:56;;;;;;;9.38;4.93;;;;;;;;;;4955751;28;20035;-66
2023/08/12 05:02:22;;;;;;;10.18;5.22;;;;;;;;;;4955126;28;20035;-65
2023/08/12 05:04:51;;;;;;;9.70;4.80;;;;;;;;;;4955272;28;20031;-67
2023/08/12 05:07:16;;;;;;;8.68;4.47;;;;;;;;;;4955133;28;20027;-67
2023/08/12 05:09:45;;;;;;;10.90;4.82;;;;;;;;;;4955187;28;20436;-67
2023/08/12 05:12:11;;;;;;;9.15;5.25;;;;;;;;;;4955031;28;20035;-66
2023/08/12 05:14:37;;;;;;;8.02;5.18;;;;;;;;;;4954943;28;20488;-66
2023/08/12 05:17:02;;;;;;;9.57;5.38;;;;;;;;;;4954858;28;20054;-65
2023/08/12 05:19:28;;;;;;;11.50;5.90;;;;;;;;;;4954839;28;20419;-65
2023/08/12 05:21:53;;;;;;;10.57;5.30;;;;;;;;;;4954519;28;20075;-66
2023/08/12 05:24:19;;;;;;;11.40;5.60;;;;;;;;;;4954749;29;20042;-67
2023/08/12 05:26:44;;;;;;;10.48;6.00;;;;;;;;;;4954941;29;20047;-66
2023/08/12 05:29:10;;;;;;;10.48;6.25;;;;;;;;;;4954862;29;20034;-66
2023/08/12 05:31:35;;;;;;;17.30;6.68;;;;;;;;;;4954581;29;20046;-65
2023/08/12 05:34:01;;;;;;;11.48;5.97;;;;;;;;;;4954477;28;20031;-66
2023/08/12 05:36:26;;;;;;;11.82;6.35;;;;;;;;;;4954506;28;20062;-66
2023/08/12 05:38:51;;;;;;;10.80;5.75;;;;;;;;;;4954477;28;20051;-67
2023/08/12 05:41:17;;;;;;;17.10;6.80;;;;;;;;;;4954643;28;20055;-67
2023/08/12 05:43:42;;;;;;;10.30;5.47;;;;;;;;;;4971255;28;20384;-65
2023/08/12 05:46:08;;;;;;;13.57;5.65;;;;;;;;;;4973648;28;20034;-66
2023/08/12 05:48:33;;;;;;;13.70;5.03;;;;;;;;;;4973753;28;20046;-66
2023/08/12 05:50:59;;;;;;;9.05;5.80;;;;;;;;;;4971907;28;20110;-66
2023/08/12 05:53:24;;;;;;;11.68;5.47;;;;;;;;;;4954157;28;20023;-64
2023/08/12 05:55:49;;;;;;;9.85;6.35;;;;;;;;;;4954308;28;20029;-66
2023/08/12 05:58:15;;;;;;;12.05;6.15;;;;;;;;;;4954324;28;20032;-65
2023/08/12 06:00:45;;;;;;;13.32;6.50;;;;;;;;;;4954060;28;20540;-66
2023/08/12 06:03:10;;;;;;;14.93;6.70;;;;;;;;;;4954140;28;20085;-67
2023/08/12 06:05:35;;;;;;;12.27;8.45;;;;;;;;;;4953722;28;20269;-66
2023/08/12 06:08:01;;;;;;;16.15;9.75;;;;;;;;;;4954189;28;20023;-65
2023/08/12 06:10:26;;;;;;;15.70;9.52;;;;;;;;;;4953938;28;20141;-65
2023/08/12 06:12:52;;;;;;;19.65;10.93;;;;;;;;;;4953903;28;20054;-66
2023/08/12 06:15:17;;;;;;;15.88;9.85;;;;;;;;;;4953926;28;20030;-65
2023/08/12 06:17:42;;;;;;;15.60;8.60;;;;;;;;;;4953688;28;20046;-66
2023/08/12 06:20:08;;;;;;;14.68;7.88;;;;;;;;;;4953575;28;20432;-65
2023/08/12 06:22:34;;;;;;;16.25;7.40;;;;;;;;;;4954088;28;20473;-64
2023/08/12 06:24:59;;;;;;;13.27;6.50;;;;;;;;;;4953585;28;20437;-62
2023/08/12 06:27:25;;;;;;;9.57;5.32;;;;;;;;;;4953543;28;20511;-64
2023/08/12 06:29:50;;;;;;;8.55;4.85;;;;;;;;;;4953357;28;20027;-65
2023/08/12 06:32:15;;;;;;;10.13;5.05;;;;;;;;;;4953481;28;20082;-63
2023/08/12 06:34:41;;;;;;;10.05;4.80;;;;;;;;;;4953192;29;20031;-62
2023/08/12 06:37:07;;;;;;;11.30;4.30;;;;;;;;;;4953452;28;20507;-65
2023/08/12 06:39:32;;;;;;;8.68;4.85;;;;;;;;;;4953423;28;20358;-66
2023/08/12 06:41:58;;;;;;;8.88;4.57;;;;;;;;;;4956224;28;20027;-64
2023/08/12 06:44:24;;;;;;;8.40;4.13;;;;;;;;;;4972696;28;20065;-63
2023/08/12 06:46:49;;;;;;;8.07;4.10;;;;;;;;;;4972559;28;20524;-62
2023/08/12 06:49:15;;;;;;;10.85;5.40;;;;;;;;;;4972279;28;20030;-61
2023/08/12 06:51:41;;;;;;;5.60;3.90;;;;;;;;;;4965375;28;20039;-61
2023/08/12 06:54:06;;;;;;;10.30;3.80;;;;;;;;;;4952879;28;20027;-62
2023/08/12 06:56:32;;;;;;;9.82;4.10;;;;;;;;;;4953346;28;20032;-61
2023/08/12 06:58:57;;;;;;;7.53;3.95;;;;;;;;;;4952761;28;20113;-62
2023/08/12 07:01:23;;;;;;;6.10;3.35;;;;;;;;;;4952984;28;20167;-65
2023/08/12 07:03:48;;;;;;;5.47;3.60;;;;;;;;;;4952864;28;20058;-62
2023/08/12 07:06:14;;;;;;;7.72;3.60;;;;;;;;;;4953000;28;20110;-65
2023/08/12 07:08:39;;;;;;;9.82;3.40;;;;;;;;;;4953081;28;20102;-65
2023/08/12 07:11:04;;;;;;;7.47;3.30;;;;;;;;;;4952781;28;20031;-66
2023/08/12 07:13:30;;;;;;;7.25;2.97;;;;;;;;;;4952853;28;20034;-65
2023/08/12 07:15:55;;;;;;;5.40;2.90;;;;;;;;;;4952878;28;20027;-64
2023/08/12 07:18:22;;;;;;;5.90;2.72;;;;;;;;;;4952457;28;20079;-66
2023/08/12 07:20:48;;;;;;;5.47;3.05;;;;;;;;;;4952880;28;20107;-65
2023/08/12 07:23:13;;;;;;;5.30;2.90;;;;;;;;;;4952761;28;20126;-63
2023/08/12 07:25:39;;;;;;;7.50;3.15;;;;;;;;;;4952756;28;20035;-65
2023/08/12 07:28:05;;;;;;;7.18;3.20;;;;;;;;;;4952936;28;20034;-62
2023/08/12 07:30:30;;;;;;;6.47;2.83;;;;;;;;;;4952652;28;20023;-64
2023/08/12 07:32:56;;;;;;;4.03;2.42;;;;;;;;;;4952547;28;20023;-62
2023/08/12 07:35:21;;;;;;;7.00;3.00;;;;;;;;;;4952657;28;20027;-63
2023/08/12 07:37:47;;;;;;;8.85;2.60;;;;;;;;;;4952702;28;20038;-61
2023/08/12 07:40:12;;;;;;;4.78;2.40;;;;;;;;;;4952657;28;20477;-65
2023/08/12 07:42:38;;;;;;;6.63;2.80;;;;;;;;;;4960961;28;20034;-61
2023/08/12 07:45:04;;;;;;;5.57;2.50;;;;;;;;;;4971965;28;20043;-64
2023/08/12 07:47:29;;;;;;;4.75;2.55;;;;;;;;;;4971590;28;20027;-66
2023/08/12 07:49:54;;;;;;;8.02;2.72;;;;;;;;;;4965173;28;20174;-65
2023/08/12 07:52:20;;;;;;;6.25;2.75;;;;;;;;;;4952477;28;20639;-65
2023/08/12 07:54:45;;;;;;;7.32;2.40;;;;;;;;;;4952369;28;20118;-66
2023/08/12 07:57:11;;;;;;;4.60;3.03;;;;;;;;;;4952510;28;20108;-65
2023/08/12 07:59:36;;;;;;;5.40;2.70;;;;;;;;;;4952568;28;20083;-65
2023/08/12 08:02:02;;;;;;;7.53;2.28;;;;;;;;;;4951973;28;20079;-65
2023/08/12 08:04:27;;;;;;;4.93;2.80;;;;;;;;;;4952280;28;20035;-66
2023/08/12 08:06:53;;;;;;;5.90;2.80;;;;;;;;;;4952323;28;20086;-66
2023/08/12 08:09:18;;;;;;;4.57;2.65;;;;;;;;;;4952310;28;20110;-67
2023/08/12 08:11:43;;;;;;;4.57;2.55;;;;;;;;;;4955046;28;20023;-65
2023/08/12 08:14:09;;;;;;;5.20;2.70;;;;;;;;;;4955842;28;20031;-64
2023/08/12 08:16:34;;;;;;;4.72;2.70;;;;;;;;;;4955834;28;20377;-65
2023/08/12 08:19:00;;;;;;;4.88;2.65;;;;;;;;;;4955951;28;20477;-66
2023/08/12 08:21:25;;;;;;;7.68;2.67;;;;;;;;;;4955856;28;20031;-65
2023/08/12 08:23:51;;;;;;;3.35;2.20;;;;;;;;;;4955775;28;20031;-66
2023/08/12 08:26:16;;;;;;;6.20;2.58;;;;;;;;;;4955678;28;20028;-65
2023/08/12 08:28:42;;;;;;;7.82;2.97;;;;;;;;;;4955118;28;20027;-63
2023/08/12 08:31:09;;;;;;;13.57;2.60;;;;;;;;;;4955308;28;20023;-64
2023/08/12 08:33:34;;;;;;;4.18;2.83;;;;;;;;;;4955659;29;20544;-67
2023/08/12 08:36:00;;;;;;;4.95;2.70;;;;;;;;;;4955447;28;20039;-67
2023/08/12 08:38:25;;;;;;;4.57;2.88;;;;;;;;;;4955483;28;20031;-67
2023/08/12 08:40:51;;;;;;;5.75;2.78;;;;;;;;;;4955538;28;20489;-62
2023/08/12 08:43:21;;;;;;;4.55;2.45;;;;;;;;;;4969045;28;20027;-65
2023/08/12 08:45:49;;;;;;;8.05;2.83;;;;;;;;;;4974214;28;20019;-66
2023/08/12 08:48:14;;;;;;;4.97;2.55;;;;;;;;;;4974625;28;20081;-66
2023/08/12 08:50:40;;;;;;;5.40;2.45;;;;;;;;;;4967773;28;20109;-66
2023/08/12 08:53:06;;;;;;;4.97;2.75;;;;;;;;;;4955039;28;20047;-63
2023/08/12 08:55:32;;;;;;;4.13;2.58;;;;;;;;;;4953410;28;20218;-66
2023/08/12 08:57:58;;;;;;;4.45;2.55;;;;;;;;;;4954523;28;20043;-67
2023/08/12 09:00:25;;;;;;;7.00;2.88;;;;;;;;;;4952649;28;20106;-66
2023/08/12 09:02:51;;;;;;;4.20;2.65;;;;;;;;;;4960810;28;20421;-65
2023/08/12 09:05:17;;;;;;;4.65;2.80;;;;;;;;;;4957219;28;20035;-65
2023/08/12 09:07:46;;;;;;;6.93;2.53;;;;;;;;;;4944840;28;20026;-66
2023/08/12 09:10:12;;;;;;;5.60;2.63;;;;;;;;;;4945975;29;20477;-67
2023/08/12 09:12:38;;;;;;;5.72;2.40;;;;;;;;;;4945028;29;20051;-66
2023/08/12 09:15:04;;;;;;;5.50;2.88;;;;;;;;;;4944061;28;20035;-64
2023/08/12 09:17:32;;;;;;;4.15;2.35;;;;;;;;;;4947691;28;20039;-66
2023/08/12 09:19:58;;;;;;;4.53;2.35;;;;;;;;;;4975741;28;20046;-65
2023/08/12 09:22:25;;;;;;;4.88;2.63;;;;;;;;;;4975422;28;20030;-65
2023/08/12 09:24:59;;;;;;;4.68;2.58;;;;;;;;;;4976093;28;20439;-64
2023/08/12 09:27:25;;;;;;;5.07;2.70;;;;;;;;;;4975905;28;20019;-65
2023/08/12 09:29:56;;;;;;;7.90;2.00;;;;;;;;;;4974479;28;20122;-66
2023/08/12 09:32:22;;;;;;;3.38;2.10;;;;;;;;;;4948210;28;20023;-66
2023/08/12 09:34:51;;;;;;;5.43;2.30;;;;;;;;;;4942629;28;20481;-66
2023/08/12 09:37:18;;;;;;;4.25;2.00;;;;;;;;;;4971344;28;20032;-65
2023/08/12 09:39:44;;;;;;;5.38;2.20;;;;;;;;;;4956302;28;20027;-65
2023/08/12 09:42:10;;;;;;;6.78;2.20;;;;;;;;;;4956410;28;20027;-66
2023/08/12 09:44:36;;;;;;;10.82;2.28;;;;;;;;;;4955575;28;20046;-65
2023/08/12 09:47:03;;;;;;;3.47;2.10;;;;;;;;;;4956256;28;20110;-66
2023/08/12 09:49:28;;;;;;;4.60;2.38;;;;;;;;;;4955865;28;20032;-67
2023/08/12 09:51:55;;;;;;;5.13;1.90;;;;;;;;;;4955932;28;20031;-65
2023/08/12 09:54:21;;;;;;;5.40;2.45;;;;;;;;;;4956195;28;20042;-67
2023/08/12 09:56:56;;;;;;;4.38;2.28;;;;;;;;;;4955909;28;20030;-68
2023/08/12 09:59:23;;;;;;;3.78;1.90;;;;;;;;;;4956215;28;20397;-67
2023/08/12 10:01:52;;;;;;;6.18;2.00;;;;;;;;;;4952891;28;20484;-66
2023/08/12 10:04:20;;;;;;;5.95;2.45;;;;;;;;;;4962727;28;20065;-65
2023/08/12 10:06:47;;;;;;;4.60;2.30;;;;;;;;;;4965909;28;20389;-68
2023/08/12 10:09:14;;;;;;;7.40;2.20;;;;;;;;;;4963736;28;20053;-68
2023/08/12 10:11:42;;;;;;;4.63;2.25;;;;;;;;;;4963370;28;20031;-67
2023/08/12 10:14:09;;;;;;;4.80;2.33;;;;;;;;;;4954318;28;20489;-66
2023/08/12 10:16:35;;;;;;;4.28;2.25;;;;;;;;;;4953306;28;20050;-68
2023/08/12 10:19:04;;;;;;;4.00;2.00;;;;;;;;;;4958099;28;20031;-68
2023/08/12 10:21:29;;;;;;;3.03;1.92;;;;;;;;;;4952745;29;20055;-68
2023/08/12 10:23:58;;;;;;;3.10;2.00;;;;;;;;;;4954857;28;20050;-67
2023/08/12 10:26:24;;;;;;;4.32;2.33;;;;;;;;;;4954972;28;20481;-67
2023/08/12 10:28:50;;;;;;;5.18;2.28;;;;;;;;;;4953973;29;20045;-67
2023/08/12 10:31:16;;;;;;;6.57;2.58;;;;;;;;;;4954762;28;20110;-63
2023/08/12 10:33:41;;;;;;;5.93;2.42;;;;;;;;;;4954115;28;20035;-66
2023/08/12 10:36:08;;;;;;;4.70;2.20;;;;;;;;;;4955084;28;20066;-65
2023/08/12 10:38:34;;;;;;;6.63;2.35;;;;;;;;;;4955056;28;20038;-68
2023/08/12 10:41:24;;;;;;;5.40;2.33;;;;;;;;;;4953644;28;20090;-61
2023/08/12 10:43:52;;;;;;;;;;;;;;;;;;4958783;28;20035;-68
2023/08/12 10:46:30;;;;;;;5.65;2.60;;;;;;;;;;4959358;28;19918;-67
2023/08/12 10:49:06;;;;;;;3.20;2.13;;;;;;;;;;4954373;28;20551;-66
2023/08/12 10:51:41;;;;;;;4.43;2.30;;;;;;;;;;4952373;28;20035;-65
2023/08/12 10:54:15;;;;;;;6.63;2.50;;;;;;;;;;4954257;28;20034;-67
2023/08/12 10:57:02;;;;;;;5.53;2.40;;;;;;;;;;4951885;28;20059;-66
2023/08/12 10:59:46;;;;;;;9.57;2.50;;;;;;;;;;4952904;28;20074;-63
2023/08/12 11:02:36;;;;;;;4.78;2.70;;;;;;;;;;4952714;28;20038;-67
2023/08/12 11:05:07;;;;;;;5.55;2.67;;;;;;;;;;4952287;28;20038;-67
2023/08/12 11:07:39;;;;;;;5.40;2.78;;;;;;;;;;4936208;29;20038;-66
2023/08/12 11:10:06;;;;;;;6.88;2.72;;;;;;;;;;4952502;28;20015;-66
2023/08/12 11:12:34;;;;;;;6.35;3.38;;;;;;;;;;4952329;28;20024;-66
2023/08/12 11:15:01;;;;;;;6.22;3.05;;;;;;;;;;4952442;28;20031;-63
2023/08/12 11:17:46;;;;;;;6.95;2.67;;;;;;;;;;4939736;28;20125;-65
2023/08/12 11:20:13;;;;;;;5.50;3.00;;;;;;;;;;4954840;28;20027;-65
2023/08/12 11:22:43;;;;;;;6.32;3.45;;;;;;;;;;4952741;28;20500;-65
2023/08/12 11:25:11;;;;;;;11.00;3.67;;;;;;;;;;4956140;28;20053;-63
2023/08/12 11:27:39;;;;;;;5.45;2.90;;;;;;;;;;4953069;28;20031;-65
2023/08/12 11:30:05;;;;;;;4.70;2.95;;;;;;;;;;4951684;28;20110;-65
2023/08/12 11:32:31;;;;;;;3.67;2.45;;;;;;;;;;4952469;28;20066;-64
2023/08/12 11:34:56;;;;;;;4.57;2.75;;;;;;;;;;4952305;28;20063;-66
2023/08/12 11:37:22;;;;;;;8.35;3.13;;;;;;;;;;4951290;29;20038;-64
2023/08/12 11:39:47;;;;;;;4.32;2.65;;;;;;;;;;4952257;29;20028;-66
2023/08/12 11:42:13;;;;;;;8.40;3.08;;;;;;;;;;4952586;29;20039;-65
2023/08/12 11:44:41;;;;;;;5.82;2.78;;;;;;;;;;4951251;29;20118;-65
2023/08/12 11:47:06;;;;;;;7.63;3.47;;;;;;;;;;4950576;29;20031;-65
2023/08/12 11:49:32;;;;;;;8.07;2.95;;;;;;;;;;4951066;29;20421;-64
2023/08/12 11:51:57;;;;;;;7.45;2.88;;;;;;;;;;4951361;28;20496;-62
2023/08/12 11:54:23;;;;;;;4.68;2.88;;;;;;;;;;4951308;28;20469;-65
2023/08/12 11:56:48;;;;;;;8.15;2.40;;;;;;;;;;4951664;28;20076;-66
2023/08/12 11:59:14;;;;;;;4.53;2.35;;;;;;;;;;4951908;28;20023;-66
2023/08/12 12:01:39;;;;;;;8.30;2.92;;;;;;;;;;4952139;28;20400;-66
2023/08/12 12:04:05;;;;;;;8.05;3.15;;;;;;;;;;4952040;28;20733;-65
2023/08/12 12:06:36;;;;;;;4.47;2.83;;;;;;;;;;4952390;28;20495;-66
2023/08/12 12:09:13;;;;;;;7.20;2.80;;;;;;;;;;4952065;28;20030;-66
2023/08/12 12:11:40;;;;;;;6.90;2.83;;;;;;;;;;4952261;28;20069;-66
2023/08/12 12:14:07;;;;;;;4.65;2.78;;;;;;;;;;4952097;28;20054;-66
2023/08/12 12:16:40;;;;;;;6.35;2.70;;;;;;;;;;4952037;28;20047;-65
2023/08/12 12:19:19;;;;;;;7.75;3.10;;;;;;;;;;4952726;28;20027;-65
2023/08/12 12:21:49;;;;;;;3.65;2.80;;;;;;;;;;4960557;28;20068;-67
2023/08/12 12:24:15;;;;;;;9.00;2.95;;;;;;;;;;4952114;28;20074;-66
2023/08/12 12:26:41;;;;;;;8.52;3.10;;;;;;;;;;4951917;28;20027;-67
2023/08/12 12:29:07;;;;;;;8.98;2.63;;;;;;;;;;4952053;28;20030;-66
2023/08/12 12:31:34;;;;;;;8.98;3.20;;;;;;;;;;4951631;28;20498;-66
2023/08/12 12:34:04;;;;;;;6.68;2.80;;;;;;;;;;4951430;28;20038;-67
2023/08/12 12:36:35;;;;;;;8.13;3.17;;;;;;;;;;4951354;29;20037;-67
2023/08/12 12:39:01;;;;;;;7.47;3.50;;;;;;;;;;4951761;28;20094;-66
2023/08/12 12:41:27;;;;;;;4.57;2.92;;;;;;;;;;4951741;28;20244;-65
2023/08/12 12:43:52;;;;;;;4.30;2.88;;;;;;;;;;4951640;28;20388;-67
2023/08/12 12:46:18;;;;;;;5.38;3.00;;;;;;;;;;4951716;28;20031;-67
2023/08/12 12:48:44;;;;;;;5.60;3.28;;;;;;;;;;4951716;28;20024;-67
2023/08/12 12:51:10;;;;;;;4.57;3.13;;;;;;;;;;4951455;28;20078;-67
2023/08/12 12:53:36;;;;;;;5.78;2.90;;;;;;;;;;4951476;28;20043;-67
2023/08/12 12:56:04;;;;;;;8.20;3.13;;;;;;;;;;4951485;28;20523;-67
2023/08/12 12:58:34;;;;;;;6.32;3.10;;;;;;;;;;4955022;28;20027;-66
2023/08/12 13:01:00;;;;;;;;;;;;;;;;;;4955308;28;20039;-66
2023/08/12 13:03:26;;;;;;;7.63;2.75;;;;;;;;;;4954948;28;19918;-65
2023/08/12 13:05:51;;;;;;;7.97;2.95;;;;;;;;;;4954879;28;20023;-67
2023/08/12 13:08:16;;;;;;;3.30;2.20;;;;;;;;;;4955003;28;20043;-67
2023/08/12 13:10:42;;;;;;;5.13;2.33;;;;;;;;;;4954887;28;20110;-67
2023/08/12 13:13:08;;;;;;;5.43;2.80;;;;;;;;;;4954858;28;20023;-67
2023/08/12 13:15:34;;;;;;;10.13;2.55;;;;;;;;;;4954963;28;20035;-67
2023/08/12 13:17:59;;;;;;;6.43;2.67;;;;;;;;;;4954446;28;20051;-66
2023/08/12 13:20:25;;;;;;;15.02;2.50;;;;;;;;;;4965782;28;20354;-66
2023/08/12 13:22:50;;;;;;;11.32;2.70;;;;;;;;;;4954940;28;20027;-66
2023/08/12 13:25:15;;;;;;;6.25;2.80;;;;;;;;;;4954902;28;20039;-65
2023/08/12 13:27:42;;;;;;;6.57;2.72;;;;;;;;;;4954863;28;20031;-66
2023/08/12 13:30:07;;;;;;;9.02;2.70;;;;;;;;;;4954895;28;20505;-65
2023/08/12 13:32:33;;;;;;;8.10;3.03;;;;;;;;;;4955281;28;20118;-65
2023/08/12 13:34:58;;;;;;;6.50;2.65;;;;;;;;;;4954483;28;20106;-66
2023/08/12 13:37:24;;;;;;;4.88;2.75;;;;;;;;;;4954708;28;20482;-66
2023/08/12 13:39:49;;;;;;;5.68;2.85;;;;;;;;;;4954561;28;20071;-67
2023/08/12 13:42:15;;;;;;;8.88;3.15;;;;;;;;;;4954533;28;20114;-66
2023/08/12 13:44:40;;;;;;;5.90;2.90;;;;;;;;;;4954442;28;20020;-67
2023/08/12 13:47:05;;;;;;;5.35;2.90;;;;;;;;;;4954412;28;20027;-68
2023/08/12 13:49:31;;;;;;;7.07;2.60;;;;;;;;;;4954171;28;20365;-64
2023/08/12 13:51:59;;;;;;;7.72;3.10;;;;;;;;;;4954164;28;20055;-63
2023/08/12 13:54:24;;;;;;;14.13;3.00;;;;;;;;;;4954234;28;20122;-64
2023/08/12 13:56:49;;;;;;;11.80;3.05;;;;;;;;;;4954207;28;20442;-64
2023/08/12 13:59:15;;;;;;;7.60;3.25;;;;;;;;;;4954086;28;20023;-63
2023/08/12 14:01:40;;;;;;;9.73;3.83;;;;;;;;;;4953981;28;20430;-64
2023/08/12 14:04:06;;;;;;;6.25;3.33;;;;;;;;;;4953969;28;20492;-64
2023/08/12 14:06:31;;;;;;;6.20;3.47;;;;;;;;;;4954022;28;20023;-65
2023/08/12 14:08:56;;;;;;;4.35;3.17;;;;;;;;;;4952661;28;20028;-64
2023/08/12 14:11:22;;;;;;;8.13;3.45;;;;;;;;;;4954002;28;20028;-64
2023/08/12 14:13:47;;;;;;;7.65;3.38;;;;;;;;;;4953795;28;20083;-64
2023/08/12 14:16:13;;;;;;;5.47;3.60;;;;;;;;;;4953716;28;20031;-67
2023/08/12 14:18:38;;;;;;;6.40;3.33;;;;;;;;;;4953752;28;20031;-66
2023/08/12 14:21:04;;;;;;;8.32;3.67;;;;;;;;;;4964926;28;20031;-67
2023/08/12 14:23:29;;;;;;;7.32;3.33;;;;;;;;;;4953871;28;20037;-66
2023/08/12 14:25:55;;;;;;;7.43;3.70;;;;;;;;;;4953963;28;20027;-65
2023/08/12 14:28:20;;;;;;;6.70;3.35;;;;;;;;;;4954006;28;20066;-65
2023/08/12 14:30:46;;;;;;;7.70;4.53;;;;;;;;;;4954194;28;20086;-66
2023/08/12 14:33:11;;;;;;;8.30;4.25;;;;;;;;;;4953702;28;20090;-66
2023/08/12 14:35:37;;;;;;;7.25;4.28;;;;;;;;;;4953869;28;20106;-66